sensor_id;sensor_type;location;lat;lon;timestamp;P1;durP1;ratioP1;P2;durP2;ratioP2
75941;SDS011;64622;46.220;19.878;2023-11-21T00:01:25;23.38;;;12.63;;
75941;SDS011;64622;46.220;19.878;2023-11-21T00:03:52;27.50;;;13.13;;
75941;SDS011;64622;46.220;19.878;2023-11-21T00:06:21;29.67;;;12.43;;
75941;SDS011;64622;46.220;19.878;2023-11-21T00:08:49;24.87;;;12.73;;
75941;SDS011;64622;46.220;19.878;2023-11-21T00:11:16;24.42;;;11.88;;
75941;SDS011;64622;46.220;19.878;2023-11-21T00:13:45;24.58;;;11.80;;
75941;SDS011;64622;46.220;19.878;2023-11-21T00:16:12;28.52;;;12.23;;
75941;SDS011;64622;46.220;19.878;2023-11-21T00:18:39;27.70;;;12.50;;
75941;SDS011;64622;46.220;19.878;2023-11-21T00:21:06;27.02;;;12.88;;
75941;SDS011;64622;46.220;19.878;2023-11-21T00:23:33;28.90;;;13.48;;
75941;SDS011;64622;46.220;19.878;2023-11-21T00:26:00;27.95;;;13.32;;
75941;SDS011;64622;46.220;19.878;2023-11-21T00:28:27;27.95;;;12.98;;
75941;SDS011;64622;46.220;19.878;2023-11-21T00:30:54;29.12;;;13.68;;
75941;SDS011;64622;46.220;19.878;2023-11-21T00:33:21;33.85;;;14.98;;
75941;SDS011;64622;46.220;19.878;2023-11-21T00:35:47;34.58;;;15.23;;
75941;SDS011;64622;46.220;19.878;2023-11-21T00:38:14;32.63;;;15.82;;
75941;SDS011;64622;46.220;19.878;2023-11-21T00:40:41;29.58;;;16.10;;
75941;SDS011;64622;46.220;19.878;2023-11-21T00:43:08;35.92;;;17.12;;
75941;SDS011;64622;46.220;19.878;2023-11-21T00:45:36;34.40;;;17.67;;
75941;SDS011;64622;46.220;19.878;2023-11-21T00:48:03;38.08;;;16.73;;
75941;SDS011;64622;46.220;19.878;2023-11-21T00:50:31;33.65;;;16.30;;
75941;SDS011;64622;46.220;19.878;2023-11-21T00:52:57;38.55;;;17.65;;
75941;SDS011;64622;46.220;19.878;2023-11-21T00:55:24;34.90;;;17.67;;
75941;SDS011;64622;46.220;19.878;2023-11-21T00:57:52;33.85;;;16.58;;
75941;SDS011;64622;46.220;19.878;2023-11-21T01:00:19;33.75;;;17.02;;
75941;SDS011;64622;46.220;19.878;2023-11-21T01:02:46;35.97;;;17.15;;
75941;SDS011;64622;46.220;19.878;2023-11-21T01:05:14;35.00;;;16.08;;
75941;SDS011;64622;46.220;19.878;2023-11-21T01:07:41;34.28;;;16.98;;
75941;SDS011;64622;46.220;19.878;2023-11-21T01:10:09;37.35;;;16.73;;
75941;SDS011;64622;46.220;19.878;2023-11-21T01:12:37;35.05;;;17.67;;
75941;SDS011;64622;46.220;19.878;2023-11-21T01:15:05;35.15;;;16.42;;
75941;SDS011;64622;46.220;19.878;2023-11-21T01:17:36;32.63;;;15.80;;
75941;SDS011;64622;46.220;19.878;2023-11-21T01:20:02;34.30;;;15.60;;
75941;SDS011;64622;46.220;19.878;2023-11-21T01:22:32;31.85;;;15.40;;
75941;SDS011;64622;46.220;19.878;2023-11-21T01:24:59;30.33;;;15.13;;
75941;SDS011;64622;46.220;19.878;2023-11-21T01:27:26;29.40;;;14.77;;
75941;SDS011;64622;46.220;19.878;2023-11-21T01:29:52;30.90;;;15.32;;
75941;SDS011;64622;46.220;19.878;2023-11-21T01:32:25;33.10;;;15.68;;
75941;SDS011;64622;46.220;19.878;2023-11-21T01:34:52;31.00;;;15.27;;
75941;SDS011;64622;46.220;19.878;2023-11-21T01:37:19;31.73;;;17.75;;
75941;SDS011;64622;46.220;19.878;2023-11-21T01:39:49;34.88;;;19.65;;
75941;SDS011;64622;46.220;19.878;2023-11-21T01:42:15;47.83;;;27.27;;
75941;SDS011;64622;46.220;19.878;2023-11-21T01:44:42;49.78;;;29.63;;
75941;SDS011;64622;46.220;19.878;2023-11-21T01:47:09;41.80;;;20.83;;
75941;SDS011;64622;46.220;19.878;2023-11-21T01:49:38;41.50;;;21.87;;
75941;SDS011;64622;46.220;19.878;2023-11-21T01:52:05;38.58;;;17.60;;
75941;SDS011;64622;46.220;19.878;2023-11-21T01:54:33;36.97;;;18.57;;
75941;SDS011;64622;46.220;19.878;2023-11-21T01:57:00;38.70;;;19.98;;
75941;SDS011;64622;46.220;19.878;2023-11-21T01:59:36;38.60;;;19.55;;
75941;SDS011;64622;46.220;19.878;2023-11-21T02:02:05;39.45;;;20.40;;
75941;SDS011;64622;46.220;19.878;2023-11-21T02:04:33;38.28;;;20.08;;
75941;SDS011;64622;46.220;19.878;2023-11-21T02:07:00;38.35;;;19.87;;
75941;SDS011;64622;46.220;19.878;2023-11-21T02:09:27;40.45;;;19.80;;
75941;SDS011;64622;46.220;19.878;2023-11-21T02:11:56;44.40;;;22.25;;
75941;SDS011;64622;46.220;19.878;2023-11-21T02:14:25;38.25;;;19.30;;
75941;SDS011;64622;46.220;19.878;2023-11-21T02:16:54;40.00;;;19.98;;
75941;SDS011;64622;46.220;19.878;2023-11-21T02:19:22;41.10;;;20.88;;
75941;SDS011;64622;46.220;19.878;2023-11-21T02:21:52;48.60;;;22.35;;
75941;SDS011;64622;46.220;19.878;2023-11-21T02:24:19;42.15;;;21.67;;
75941;SDS011;64622;46.220;19.878;2023-11-21T02:26:48;41.28;;;22.20;;
75941;SDS011;64622;46.220;19.878;2023-11-21T02:29:17;43.13;;;21.62;;
75941;SDS011;64622;46.220;19.878;2023-11-21T02:31:50;45.05;;;22.33;;
75941;SDS011;64622;46.220;19.878;2023-11-21T02:34:18;43.65;;;20.90;;
75941;SDS011;64622;46.220;19.878;2023-11-21T02:36:44;48.78;;;22.65;;
75941;SDS011;64622;46.220;19.878;2023-11-21T02:39:12;47.47;;;23.33;;
75941;SDS011;64622;46.220;19.878;2023-11-21T02:41:39;43.75;;;21.87;;
75941;SDS011;64622;46.220;19.878;2023-11-21T02:44:06;44.67;;;23.03;;
75941;SDS011;64622;46.220;19.878;2023-11-21T02:46:34;57.75;;;28.52;;
75941;SDS011;64622;46.220;19.878;2023-11-21T02:49:02;52.20;;;30.00;;
75941;SDS011;64622;46.220;19.878;2023-11-21T02:51:30;57.50;;;29.95;;
75941;SDS011;64622;46.220;19.878;2023-11-21T02:53:57;59.47;;;29.83;;
75941;SDS011;64622;46.220;19.878;2023-11-21T02:56:34;61.03;;;30.95;;
75941;SDS011;64622;46.220;19.878;2023-11-21T02:59:03;55.78;;;29.55;;
75941;SDS011;64622;46.220;19.878;2023-11-21T03:01:32;60.88;;;29.92;;
75941;SDS011;64622;46.220;19.878;2023-11-21T03:03:59;57.20;;;29.40;;
75941;SDS011;64622;46.220;19.878;2023-11-21T03:06:26;63.63;;;31.90;;
75941;SDS011;64622;46.220;19.878;2023-11-21T03:08:53;62.53;;;31.73;;
75941;SDS011;64622;46.220;19.878;2023-11-21T03:11:20;59.75;;;30.12;;
75941;SDS011;64622;46.220;19.878;2023-11-21T03:13:47;64.70;;;30.77;;
75941;SDS011;64622;46.220;19.878;2023-11-21T03:16:16;59.25;;;29.63;;
75941;SDS011;64622;46.220;19.878;2023-11-21T03:18:43;57.62;;;30.05;;
75941;SDS011;64622;46.220;19.878;2023-11-21T03:21:11;57.33;;;29.47;;
75941;SDS011;64622;46.220;19.878;2023-11-21T03:23:39;63.42;;;29.73;;
75941;SDS011;64622;46.220;19.878;2023-11-21T03:26:06;54.38;;;27.45;;
75941;SDS011;64622;46.220;19.878;2023-11-21T03:28:35;53.40;;;28.27;;
75941;SDS011;64622;46.220;19.878;2023-11-21T03:31:02;55.58;;;28.65;;
75941;SDS011;64622;46.220;19.878;2023-11-21T03:33:29;60.53;;;30.48;;
75941;SDS011;64622;46.220;19.878;2023-11-21T03:35:56;53.70;;;28.52;;
75941;SDS011;64622;46.220;19.878;2023-11-21T03:38:23;52.53;;;28.38;;
75941;SDS011;64622;46.220;19.878;2023-11-21T03:40:50;50.55;;;25.23;;
75941;SDS011;64622;46.220;19.878;2023-11-21T03:43:17;48.97;;;25.85;;
75941;SDS011;64622;46.220;19.878;2023-11-21T03:45:44;51.27;;;25.07;;
75941;SDS011;64622;46.220;19.878;2023-11-21T03:48:10;57.15;;;32.13;;
75941;SDS011;64622;46.220;19.878;2023-11-21T03:50:39;57.22;;;30.73;;
75941;SDS011;64622;46.220;19.878;2023-11-21T03:53:06;60.88;;;29.77;;
75941;SDS011;64622;46.220;19.878;2023-11-21T03:55:33;60.15;;;31.12;;
75941;SDS011;64622;46.220;19.878;2023-11-21T03:58:04;61.55;;;31.45;;
75941;SDS011;64622;46.220;19.878;2023-11-21T04:00:30;49.63;;;26.87;;
75941;SDS011;64622;46.220;19.878;2023-11-21T04:02:57;55.03;;;25.52;;
75941;SDS011;64622;46.220;19.878;2023-11-21T04:05:24;46.88;;;25.15;;
75941;SDS011;64622;46.220;19.878;2023-11-21T04:07:51;51.15;;;25.80;;
75941;SDS011;64622;46.220;19.878;2023-11-21T04:10:19;49.30;;;25.62;;
75941;SDS011;64622;46.220;19.878;2023-11-21T04:12:45;52.42;;;27.33;;
75941;SDS011;64622;46.220;19.878;2023-11-21T04:15:12;52.35;;;26.10;;
75941;SDS011;64622;46.220;19.878;2023-11-21T04:17:41;50.25;;;25.42;;
75941;SDS011;64622;46.220;19.878;2023-11-21T04:20:09;47.60;;;26.12;;
75941;SDS011;64622;46.220;19.878;2023-11-21T04:22:36;49.10;;;26.08;;
75941;SDS011;64622;46.220;19.878;2023-11-21T04:25:08;50.17;;;24.37;;
75941;SDS011;64622;46.220;19.878;2023-11-21T04:27:39;51.28;;;25.50;;
75941;SDS011;64622;46.220;19.878;2023-11-21T04:30:07;53.72;;;26.73;;
75941;SDS011;64622;46.220;19.878;2023-11-21T04:32:35;49.50;;;25.60;;
75941;SDS011;64622;46.220;19.878;2023-11-21T04:35:02;53.72;;;27.10;;
75941;SDS011;64622;46.220;19.878;2023-11-21T04:37:30;49.50;;;27.08;;
75941;SDS011;64622;46.220;19.878;2023-11-21T04:39:57;50.55;;;26.15;;
75941;SDS011;64622;46.220;19.878;2023-11-21T04:42:24;63.03;;;30.08;;
75941;SDS011;64622;46.220;19.878;2023-11-21T04:44:51;66.45;;;32.38;;
75941;SDS011;64622;46.220;19.878;2023-11-21T04:47:18;57.55;;;28.17;;
75941;SDS011;64622;46.220;19.878;2023-11-21T04:49:46;60.38;;;29.60;;
75941;SDS011;64622;46.220;19.878;2023-11-21T04:52:16;60.47;;;29.77;;
75941;SDS011;64622;46.220;19.878;2023-11-21T04:54:43;60.17;;;30.08;;
75941;SDS011;64622;46.220;19.878;2023-11-21T04:57:09;59.05;;;30.70;;
75941;SDS011;64622;46.220;19.878;2023-11-21T04:59:37;58.78;;;30.98;;
75941;SDS011;64622;46.220;19.878;2023-11-21T05:02:04;52.58;;;28.98;;
75941;SDS011;64622;46.220;19.878;2023-11-21T05:04:31;52.10;;;26.08;;
75941;SDS011;64622;46.220;19.878;2023-11-21T05:06:59;51.70;;;26.35;;
75941;SDS011;64622;46.220;19.878;2023-11-21T05:09:27;53.53;;;27.23;;
75941;SDS011;64622;46.220;19.878;2023-11-21T05:11:54;56.88;;;30.45;;
75941;SDS011;64622;46.220;19.878;2023-11-21T05:14:21;68.78;;;36.20;;
75941;SDS011;64622;46.220;19.878;2023-11-21T05:16:48;60.58;;;33.70;;
75941;SDS011;64622;46.220;19.878;2023-11-21T05:19:17;65.07;;;35.05;;
75941;SDS011;64622;46.220;19.878;2023-11-21T05:21:44;64.78;;;34.90;;
75941;SDS011;64622;46.220;19.878;2023-11-21T05:24:11;66.85;;;37.35;;
75941;SDS011;64622;46.220;19.878;2023-11-21T05:26:38;68.60;;;37.25;;
75941;SDS011;64622;46.220;19.878;2023-11-21T05:29:05;73.25;;;38.75;;
75941;SDS011;64622;46.220;19.878;2023-11-21T05:31:32;71.30;;;38.78;;
75941;SDS011;64622;46.220;19.878;2023-11-21T05:33:59;67.00;;;37.75;;
75941;SDS011;64622;46.220;19.878;2023-11-21T05:36:26;69.72;;;37.88;;
75941;SDS011;64622;46.220;19.878;2023-11-21T05:38:53;68.97;;;36.30;;
75941;SDS011;64622;46.220;19.878;2023-11-21T05:41:19;68.57;;;35.20;;
75941;SDS011;64622;46.220;19.878;2023-11-21T05:43:46;63.85;;;34.50;;
75941;SDS011;64622;46.220;19.878;2023-11-21T05:46:13;56.35;;;31.23;;
75941;SDS011;64622;46.220;19.878;2023-11-21T05:48:39;60.40;;;31.60;;
75941;SDS011;64622;46.220;19.878;2023-11-21T05:51:07;57.08;;;28.25;;
75941;SDS011;64622;46.220;19.878;2023-11-21T05:53:34;57.58;;;29.55;;
75941;SDS011;64622;46.220;19.878;2023-11-21T05:56:02;51.35;;;27.77;;
75941;SDS011;64622;46.220;19.878;2023-11-21T05:58:31;46.60;;;25.48;;
75941;SDS011;64622;46.220;19.878;2023-11-21T06:00:57;50.30;;;25.73;;
75941;SDS011;64622;46.220;19.878;2023-11-21T06:03:24;47.75;;;24.25;;
75941;SDS011;64622;46.220;19.878;2023-11-21T06:05:51;45.85;;;23.87;;
75941;SDS011;64622;46.220;19.878;2023-11-21T06:08:18;53.97;;;25.98;;
75941;SDS011;64622;46.220;19.878;2023-11-21T06:10:45;53.25;;;26.17;;
75941;SDS011;64622;46.220;19.878;2023-11-21T06:13:15;47.58;;;23.95;;
75941;SDS011;64622;46.220;19.878;2023-11-21T06:15:43;49.75;;;25.73;;
75941;SDS011;64622;46.220;19.878;2023-11-21T06:18:10;71.50;;;33.65;;
75941;SDS011;64622;46.220;19.878;2023-11-21T06:20:37;61.15;;;30.08;;
75941;SDS011;64622;46.220;19.878;2023-11-21T06:23:04;64.97;;;31.40;;
75941;SDS011;64622;46.220;19.878;2023-11-21T06:25:32;54.83;;;28.30;;
75941;SDS011;64622;46.220;19.878;2023-11-21T06:28:02;61.53;;;30.62;;
75941;SDS011;64622;46.220;19.878;2023-11-21T06:30:29;63.75;;;30.20;;
75941;SDS011;64622;46.220;19.878;2023-11-21T06:32:56;65.00;;;30.65;;
75941;SDS011;64622;46.220;19.878;2023-11-21T06:35:22;50.63;;;26.42;;
75941;SDS011;64622;46.220;19.878;2023-11-21T06:37:49;49.53;;;24.73;;
75941;SDS011;64622;46.220;19.878;2023-11-21T06:40:18;52.13;;;25.45;;
75941;SDS011;64622;46.220;19.878;2023-11-21T06:42:45;44.22;;;22.45;;
75941;SDS011;64622;46.220;19.878;2023-11-21T06:45:13;41.63;;;20.55;;
75941;SDS011;64622;46.220;19.878;2023-11-21T06:47:41;43.85;;;22.55;;
75941;SDS011;64622;46.220;19.878;2023-11-21T06:50:08;39.72;;;21.85;;
75941;SDS011;64622;46.220;19.878;2023-11-21T06:52:35;40.83;;;22.13;;
75941;SDS011;64622;46.220;19.878;2023-11-21T06:55:02;38.47;;;20.27;;
75941;SDS011;64622;46.220;19.878;2023-11-21T06:57:31;35.33;;;18.48;;
75941;SDS011;64622;46.220;19.878;2023-11-21T06:59:58;36.95;;;19.37;;
75941;SDS011;64622;46.220;19.878;2023-11-21T07:02:26;37.35;;;17.70;;
75941;SDS011;64622;46.220;19.878;2023-11-21T07:04:54;33.90;;;16.12;;
75941;SDS011;64622;46.220;19.878;2023-11-21T07:07:20;35.67;;;17.42;;
75941;SDS011;64622;46.220;19.878;2023-11-21T07:09:47;29.40;;;15.45;;
75941;SDS011;64622;46.220;19.878;2023-11-21T07:12:15;35.25;;;17.33;;
75941;SDS011;64622;46.220;19.878;2023-11-21T07:14:41;31.50;;;16.15;;
75941;SDS011;64622;46.220;19.878;2023-11-21T07:17:11;33.83;;;16.37;;
75941;SDS011;64622;46.220;19.878;2023-11-21T07:19:38;31.08;;;15.23;;
75941;SDS011;64622;46.220;19.878;2023-11-21T07:22:05;28.52;;;16.58;;
75941;SDS011;64622;46.220;19.878;2023-11-21T07:24:33;29.17;;;15.93;;
75941;SDS011;64622;46.220;19.878;2023-11-21T07:27:00;37.72;;;17.12;;
75941;SDS011;64622;46.220;19.878;2023-11-21T07:29:27;31.60;;;16.37;;
75941;SDS011;64622;46.220;19.878;2023-11-21T07:31:56;36.10;;;18.05;;
75941;SDS011;64622;46.220;19.878;2023-11-21T07:34:23;31.50;;;18.05;;
75941;SDS011;64622;46.220;19.878;2023-11-21T07:36:49;40.47;;;17.23;;
75941;SDS011;64622;46.220;19.878;2023-11-21T07:39:16;30.70;;;16.23;;
75941;SDS011;64622;46.220;19.878;2023-11-21T07:41:43;29.60;;;16.15;;
75941;SDS011;64622;46.220;19.878;2023-11-21T07:44:15;26.67;;;15.10;;
75941;SDS011;64622;46.220;19.878;2023-11-21T07:46:46;28.70;;;14.68;;
75941;SDS011;64622;46.220;19.878;2023-11-21T07:49:14;28.45;;;14.23;;
75941;SDS011;64622;46.220;19.878;2023-11-21T07:51:46;26.85;;;13.80;;
75941;SDS011;64622;46.220;19.878;2023-11-21T07:54:13;27.90;;;14.23;;
75941;SDS011;64622;46.220;19.878;2023-11-21T07:56:40;27.17;;;14.10;;
75941;SDS011;64622;46.220;19.878;2023-11-21T07:59:07;26.58;;;13.75;;
75941;SDS011;64622;46.220;19.878;2023-11-21T08:01:34;30.27;;;14.57;;
75941;SDS011;64622;46.220;19.878;2023-11-21T08:04:02;28.42;;;14.20;;
75941;SDS011;64622;46.220;19.878;2023-11-21T08:06:29;30.27;;;13.35;;
75941;SDS011;64622;46.220;19.878;2023-11-21T08:08:57;23.87;;;12.95;;
75941;SDS011;64622;46.220;19.878;2023-11-21T08:11:24;23.17;;;11.85;;
75941;SDS011;64622;46.220;19.878;2023-11-21T08:13:53;27.50;;;13.00;;
75941;SDS011;64622;46.220;19.878;2023-11-21T08:16:20;19.10;;;10.48;;
75941;SDS011;64622;46.220;19.878;2023-11-21T08:18:47;20.23;;;9.65;;
75941;SDS011;64622;46.220;19.878;2023-11-21T08:21:14;18.98;;;9.10;;
75941;SDS011;64622;46.220;19.878;2023-11-21T08:23:41;16.08;;;7.80;;
75941;SDS011;64622;46.220;19.878;2023-11-21T08:26:08;15.80;;;7.85;;
75941;SDS011;64622;46.220;19.878;2023-11-21T08:28:35;16.15;;;8.00;;
75941;SDS011;64622;46.220;19.878;2023-11-21T08:31:02;15.25;;;7.97;;
75941;SDS011;64622;46.220;19.878;2023-11-21T08:33:29;14.40;;;7.32;;
75941;SDS011;64622;46.220;19.878;2023-11-21T08:35:56;17.62;;;7.72;;
75941;SDS011;64622;46.220;19.878;2023-11-21T08:38:23;18.95;;;7.75;;
75941;SDS011;64622;46.220;19.878;2023-11-21T08:40:50;16.83;;;8.23;;
75941;SDS011;64622;46.220;19.878;2023-11-21T08:43:17;16.70;;;6.72;;
75941;SDS011;64622;46.220;19.878;2023-11-21T08:45:46;17.50;;;6.28;;
75941;SDS011;64622;46.220;19.878;2023-11-21T08:48:14;14.85;;;5.75;;
75941;SDS011;64622;46.220;19.878;2023-11-21T08:50:41;20.92;;;7.12;;
75941;SDS011;64622;46.220;19.878;2023-11-21T08:53:07;16.65;;;7.37;;
75941;SDS011;64622;46.220;19.878;2023-11-21T08:55:35;12.30;;;4.70;;
75941;SDS011;64622;46.220;19.878;2023-11-21T08:58:03;13.40;;;5.93;;
75941;SDS011;64622;46.220;19.878;2023-11-21T09:00:32;14.05;;;5.90;;
75941;SDS011;64622;46.220;19.878;2023-11-21T09:03:02;13.80;;;6.28;;
75941;SDS011;64622;46.220;19.878;2023-11-21T09:05:29;19.75;;;10.25;;
75941;SDS011;64622;46.220;19.878;2023-11-21T09:07:56;16.83;;;6.85;;
75941;SDS011;64622;46.220;19.878;2023-11-21T09:10:23;14.98;;;5.37;;
75941;SDS011;64622;46.220;19.878;2023-11-21T09:12:51;10.68;;;4.65;;
75941;SDS011;64622;46.220;19.878;2023-11-21T09:15:18;12.18;;;4.50;;
75941;SDS011;64622;46.220;19.878;2023-11-21T09:17:47;9.85;;;4.18;;
75941;SDS011;64622;46.220;19.878;2023-11-21T09:20:14;11.02;;;3.75;;
75941;SDS011;64622;46.220;19.878;2023-11-21T09:22:42;8.35;;;2.90;;
75941;SDS011;64622;46.220;19.878;2023-11-21T09:25:13;10.50;;;3.15;;
75941;SDS011;64622;46.220;19.878;2023-11-21T09:27:40;11.65;;;3.40;;
75941;SDS011;64622;46.220;19.878;2023-11-21T09:30:07;10.55;;;2.80;;
75941;SDS011;64622;46.220;19.878;2023-11-21T09:32:37;10.57;;;3.20;;
75941;SDS011;64622;46.220;19.878;2023-11-21T09:35:05;9.07;;;2.58;;
75941;SDS011;64622;46.220;19.878;2023-11-21T09:37:34;9.07;;;2.72;;
75941;SDS011;64622;46.220;19.878;2023-11-21T09:40:04;8.45;;;2.75;;
75941;SDS011;64622;46.220;19.878;2023-11-21T09:42:40;11.15;;;2.60;;
75941;SDS011;64622;46.220;19.878;2023-11-21T09:45:29;6.80;;;2.33;;
75941;SDS011;64622;46.220;19.878;2023-11-21T09:48:01;7.82;;;2.33;;
75941;SDS011;64622;46.220;19.878;2023-11-21T09:50:29;8.27;;;2.03;;
75941;SDS011;64622;46.220;19.878;2023-11-21T09:55:49;6.60;;;2.35;;
75941;SDS011;64622;46.220;19.878;2023-11-21T09:58:18;6.47;;;2.10;;
75941;SDS011;64622;46.220;19.878;2023-11-21T10:00:47;8.27;;;1.90;;
75941;SDS011;64622;46.220;19.878;2023-11-21T10:03:15;7.20;;;1.90;;
75941;SDS011;64622;46.220;19.878;2023-11-21T10:05:42;6.12;;;1.62;;
75941;SDS011;64622;46.220;19.878;2023-11-21T10:08:12;10.20;;;3.17;;
75941;SDS011;64622;46.220;19.878;2023-11-21T10:10:43;7.15;;;2.53;;
75941;SDS011;64622;46.220;19.878;2023-11-21T10:13:11;8.85;;;2.58;;
75941;SDS011;64622;46.220;19.878;2023-11-21T10:15:43;10.68;;;3.50;;
75941;SDS011;64622;46.220;19.878;2023-11-21T10:18:15;8.13;;;2.80;;
75941;SDS011;64622;46.220;19.878;2023-11-21T10:20:43;18.30;;;7.62;;
75941;SDS011;64622;46.220;19.878;2023-11-21T10:23:12;9.30;;;2.87;;
75941;SDS011;64622;46.220;19.878;2023-11-21T10:25:41;10.23;;;2.60;;
75941;SDS011;64622;46.220;19.878;2023-11-21T10:28:09;9.75;;;2.50;;
75941;SDS011;64622;46.220;19.878;2023-11-21T10:30:37;11.20;;;4.35;;
75941;SDS011;64622;46.220;19.878;2023-11-21T10:33:04;16.87;;;7.32;;
75941;SDS011;64622;46.220;19.878;2023-11-21T10:38:08;11.20;;;4.85;;
75941;SDS011;64622;46.220;19.878;2023-11-21T10:40:40;11.73;;;4.05;;
75941;SDS011;64622;46.220;19.878;2023-11-21T10:43:08;10.88;;;2.85;;
75941;SDS011;64622;46.220;19.878;2023-11-21T10:45:36;10.05;;;3.17;;
75941;SDS011;64622;46.220;19.878;2023-11-21T10:48:07;10.35;;;3.40;;
75941;SDS011;64622;46.220;19.878;2023-11-21T10:50:37;9.60;;;2.80;;
75941;SDS011;64622;46.220;19.878;2023-11-21T10:53:04;10.38;;;2.97;;
75941;SDS011;64622;46.220;19.878;2023-11-21T10:55:32;9.23;;;2.70;;
75941;SDS011;64622;46.220;19.878;2023-11-21T10:58:00;9.73;;;3.00;;
75941;SDS011;64622;46.220;19.878;2023-11-21T11:00:29;6.85;;;2.30;;
75941;SDS011;64622;46.220;19.878;2023-11-21T11:02:56;9.10;;;2.95;;
75941;SDS011;64622;46.220;19.878;2023-11-21T11:05:25;7.82;;;2.72;;
75941;SDS011;64622;46.220;19.878;2023-11-21T11:07:59;8.93;;;2.95;;
75941;SDS011;64622;46.220;19.878;2023-11-21T11:10:29;8.75;;;2.35;;
75941;SDS011;64622;46.220;19.878;2023-11-21T11:12:57;9.05;;;2.60;;
75941;SDS011;64622;46.220;19.878;2023-11-21T11:15:25;9.20;;;3.33;;
75941;SDS011;64622;46.220;19.878;2023-11-21T11:17:53;10.25;;;2.85;;
75941;SDS011;64622;46.220;19.878;2023-11-21T11:20:25;9.73;;;2.50;;
75941;SDS011;64622;46.220;19.878;2023-11-21T11:28:39;30.25;;;14.93;;
75941;SDS011;64622;46.220;19.878;2023-11-21T11:34:31;12.60;;;3.00;;
75941;SDS011;64622;46.220;19.878;2023-11-21T11:37:04;10.90;;;2.70;;
75941;SDS011;64622;46.220;19.878;2023-11-21T11:39:39;10.07;;;2.40;;
75941;SDS011;64622;46.220;19.878;2023-11-21T11:42:16;7.72;;;2.60;;
75941;SDS011;64622;46.220;19.878;2023-11-21T11:47:28;9.07;;;3.42;;
75941;SDS011;64622;46.220;19.878;2023-11-21T11:50:12;7.37;;;2.42;;
75941;SDS011;64622;46.220;19.878;2023-11-21T11:52:41;8.07;;;1.90;;
75941;SDS011;64622;46.220;19.878;2023-11-21T11:55:10;9.60;;;3.15;;
75941;SDS011;64622;46.220;19.878;2023-11-21T11:57:39;8.38;;;2.05;;
75941;SDS011;64622;46.220;19.878;2023-11-21T12:02:47;7.70;;;1.90;;
75941;SDS011;64622;46.220;19.878;2023-11-21T12:05:16;8.18;;;2.15;;
75941;SDS011;64622;46.220;19.878;2023-11-21T12:07:45;5.60;;;1.80;;
75941;SDS011;64622;46.220;19.878;2023-11-21T12:10:16;7.95;;;2.10;;
75941;SDS011;64622;46.220;19.878;2023-11-21T12:15:41;8.82;;;2.42;;
75941;SDS011;64622;46.220;19.878;2023-11-21T12:18:08;10.30;;;2.90;;
75941;SDS011;64622;46.220;19.878;2023-11-21T12:20:35;12.48;;;2.35;;
75941;SDS011;64622;46.220;19.878;2023-11-21T12:23:05;12.35;;;3.50;;
75941;SDS011;64622;46.220;19.878;2023-11-21T12:25:32;11.57;;;3.80;;
75941;SDS011;64622;46.220;19.878;2023-11-21T12:28:00;13.13;;;3.53;;
75941;SDS011;64622;46.220;19.878;2023-11-21T12:30:29;15.23;;;4.72;;
75941;SDS011;64622;46.220;19.878;2023-11-21T12:32:58;11.15;;;3.67;;
75941;SDS011;64622;46.220;19.878;2023-11-21T12:35:27;19.00;;;6.10;;
75941;SDS011;64622;46.220;19.878;2023-11-21T12:37:56;15.15;;;5.03;;
75941;SDS011;64622;46.220;19.878;2023-11-21T12:40:23;13.82;;;4.25;;
75941;SDS011;64622;46.220;19.878;2023-11-21T12:42:54;14.45;;;4.20;;
75941;SDS011;64622;46.220;19.878;2023-11-21T12:45:23;10.52;;;3.30;;
75941;SDS011;64622;46.220;19.878;2023-11-21T12:47:55;12.43;;;4.20;;
75941;SDS011;64622;46.220;19.878;2023-11-21T12:50:26;10.85;;;3.83;;
75941;SDS011;64622;46.220;19.878;2023-11-21T12:52:59;18.83;;;7.03;;
75941;SDS011;64622;46.220;19.878;2023-11-21T12:55:32;14.40;;;5.32;;
75941;SDS011;64622;46.220;19.878;2023-11-21T12:58:04;11.88;;;4.22;;
75941;SDS011;64622;46.220;19.878;2023-11-21T13:00:46;14.32;;;4.50;;
75941;SDS011;64622;46.220;19.878;2023-11-21T13:03:14;14.80;;;4.55;;
75941;SDS011;64622;46.220;19.878;2023-11-21T13:05:47;10.82;;;4.30;;
75941;SDS011;64622;46.220;19.878;2023-11-21T13:08:18;10.95;;;3.83;;
75941;SDS011;64622;46.220;19.878;2023-11-21T13:10:49;10.88;;;3.30;;
75941;SDS011;64622;46.220;19.878;2023-11-21T13:13:18;14.75;;;3.90;;
75941;SDS011;64622;46.220;19.878;2023-11-21T13:15:54;11.15;;;4.22;;
75941;SDS011;64622;46.220;19.878;2023-11-21T13:18:23;14.48;;;4.90;;
75941;SDS011;64622;46.220;19.878;2023-11-21T13:20:52;9.23;;;2.80;;
75941;SDS011;64622;46.220;19.878;2023-11-21T13:23:21;9.27;;;2.72;;
75941;SDS011;64622;46.220;19.878;2023-11-21T13:25:51;8.88;;;2.80;;
75941;SDS011;64622;46.220;19.878;2023-11-21T13:28:18;8.18;;;2.33;;
75941;SDS011;64622;46.220;19.878;2023-11-21T13:30:48;9.30;;;2.67;;
75941;SDS011;64622;46.220;19.878;2023-11-21T13:33:19;7.40;;;2.50;;
75941;SDS011;64622;46.220;19.878;2023-11-21T13:35:48;10.18;;;3.50;;
75941;SDS011;64622;46.220;19.878;2023-11-21T13:38:17;10.85;;;3.00;;
75941;SDS011;64622;46.220;19.878;2023-11-21T13:40:52;8.88;;;3.17;;
75941;SDS011;64622;46.220;19.878;2023-11-21T13:43:21;11.02;;;4.65;;
75941;SDS011;64622;46.220;19.878;2023-11-21T13:45:51;11.80;;;5.22;;
75941;SDS011;64622;46.220;19.878;2023-11-21T13:48:26;12.80;;;4.68;;
75941;SDS011;64622;46.220;19.878;2023-11-21T13:51:07;10.10;;;3.95;;
75941;SDS011;64622;46.220;19.878;2023-11-21T13:53:46;14.82;;;6.45;;
75941;SDS011;64622;46.220;19.878;2023-11-21T13:56:16;20.12;;;8.27;;
75941;SDS011;64622;46.220;19.878;2023-11-21T13:58:50;34.88;;;14.05;;
75941;SDS011;64622;46.220;19.878;2023-11-21T14:01:18;43.90;;;18.83;;
75941;SDS011;64622;46.220;19.878;2023-11-21T14:04:08;51.70;;;23.17;;
75941;SDS011;64622;46.220;19.878;2023-11-21T14:06:49;81.53;;;30.95;;
75941;SDS011;64622;46.220;19.878;2023-11-21T14:09:21;34.22;;;14.82;;
75941;SDS011;64622;46.220;19.878;2023-11-21T14:11:54;12.43;;;3.83;;
75941;SDS011;64622;46.220;19.878;2023-11-21T14:14:24;10.95;;;4.47;;
75941;SDS011;64622;46.220;19.878;2023-11-21T14:16:53;28.23;;;12.63;;
75941;SDS011;64622;46.220;19.878;2023-11-21T14:19:22;26.60;;;14.27;;
75941;SDS011;64622;46.220;19.878;2023-11-21T14:21:53;25.33;;;13.30;;
75941;SDS011;64622;46.220;19.878;2023-11-21T14:24:21;29.98;;;14.35;;
75941;SDS011;64622;46.220;19.878;2023-11-21T14:26:50;25.23;;;14.50;;
75941;SDS011;64622;46.220;19.878;2023-11-21T14:29:18;21.05;;;11.55;;
75941;SDS011;64622;46.220;19.878;2023-11-21T14:31:49;18.73;;;9.23;;
75941;SDS011;64622;46.220;19.878;2023-11-21T14:34:17;22.37;;;10.45;;
75941;SDS011;64622;46.220;19.878;2023-11-21T14:36:44;24.15;;;12.50;;
75941;SDS011;64622;46.220;19.878;2023-11-21T14:39:11;24.17;;;12.57;;
75941;SDS011;64622;46.220;19.878;2023-11-21T14:41:49;23.20;;;13.55;;
75941;SDS011;64622;46.220;19.878;2023-11-21T14:44:17;24.70;;;14.38;;
75941;SDS011;64622;46.220;19.878;2023-11-21T14:46:43;27.15;;;12.25;;